Time;durP1;ratioP1;P1;durP2;ratioP2;P2;SDS_P1;SDS_P2;PMS_P1;PMS_P2;Temp;Humidity;BMP_temperature;BMP_pressure;BME280_temperature;BME280_humidity;BME280_pressure;Samples;Min_cycle;Max_cycle;Signal;HPM_P1;HPM_P2
2022/02/22 00:02:10;;;;;;;2.42;1.27;;;4.50;99.90;;;;;;5078398;28;20044;-86
2022/02/22 00:04:38;;;;;;;2.00;1.27;;;4.50;99.90;;;;;;5078924;28;20047;-88
2022/02/22 00:07:06;;;;;;;6.90;1.43;;;4.50;99.90;;;;;;5078651;28;20060;-85
2022/02/22 00:09:33;;;;;;;6.17;2.00;;;4.50;99.90;;;;;;5076796;28;20048;-86
2022/02/22 00:12:00;;;;;;;3.00;1.07;;;4.60;99.90;;;;;;5078144;28;20044;-86
2022/02/22 00:14:27;;;;;;;5.37;1.43;;;4.60;99.90;;;;;;5077229;28;20053;-86
2022/02/22 00:16:58;;;;;;;3.60;1.40;;;4.60;99.90;;;;;;5077037;28;20102;-85
2022/02/22 00:19:37;;;;;;;1.73;0.90;;;4.60;99.90;;;;;;5076152;28;20059;-84
2022/02/22 00:22:04;;;;;;;8.70;1.10;;;4.70;99.90;;;;;;5076637;28;20135;-85
2022/02/22 00:24:31;;;;;;;2.23;1.13;;;4.70;99.90;;;;;;5077386;28;20052;-84
2022/02/22 00:27:03;;;;;;;3.00;0.97;;;4.70;99.90;;;;;;5074837;28;20074;-86
2022/02/22 00:29:30;;;;;;;;;;;4.70;99.90;;;;;;5076737;28;20471;-84
2022/02/22 00:31:58;;;;;;;5.57;1.10;;;4.80;99.90;;;;;;5076156;28;19927;-85
2022/02/22 00:34:25;;;;;;;2.37;1.50;;;4.80;99.90;;;;;;5076763;28;20103;-85
2022/02/22 00:36:54;;;;;;;4.23;1.07;;;4.80;99.90;;;;;;5075442;28;20067;-85
2022/02/22 00:39:27;;;;;;;2.97;1.07;;;4.80;99.90;;;;;;5077029;28;20060;-85
2022/02/22 00:41:54;;;;;;;1.17;1.00;;;4.80;99.90;;;;;;5075425;28;20052;-87
2022/02/22 00:44:23;;;;;;;5.07;1.53;;;4.80;99.90;;;;;;5095222;28;20047;-85
2022/02/22 00:46:51;;;;;;;3.60;1.00;;;4.80;99.90;;;;;;5081566;28;20052;-86
2022/02/22 00:49:23;;;;;;;4.27;1.27;;;4.80;99.90;;;;;;5079095;28;20044;-85
2022/02/22 00:51:50;;;;;;;3.30;0.93;;;4.80;99.90;;;;;;5079257;28;20066;-85
2022/02/22 00:54:21;;;;;;;5.00;0.77;;;4.80;99.90;;;;;;5081203;28;20049;-86
2022/02/22 00:56:51;;;;;;;7.03;1.00;;;4.80;99.90;;;;;;5079979;28;20049;-85
2022/02/22 00:59:20;;;;;;;5.13;1.33;;;4.80;99.90;;;;;;5079755;28;20049;-83
2022/02/22 01:01:49;;;;;;;8.93;1.60;;;4.80;99.90;;;;;;5079319;28;20049;-85
2022/02/22 01:04:19;;;;;;;5.63;1.47;;;4.80;99.90;;;;;;5079882;28;20057;-85
2022/02/22 01:06:48;;;;;;;2.43;1.33;;;4.90;99.90;;;;;;5080747;28;20059;-86
2022/02/22 01:09:18;;;;;;;2.63;0.90;;;4.90;99.90;;;;;;5081193;28;20048;-86
2022/02/22 01:11:45;;;;;;;3.17;0.90;;;4.90;99.90;;;;;;5079210;28;20040;-85
2022/02/22 01:14:12;;;;;;;1.63;1.03;;;4.90;99.90;;;;;;5080879;28;20075;-84
2022/02/22 01:16:39;;;;;;;0.63;0.63;;;4.90;99.90;;;;;;5067404;28;20059;-86
2022/02/22 01:19:06;;;;;;;10.20;1.67;;;4.90;99.90;;;;;;5074460;28;20064;-86
2022/02/22 01:21:35;;;;;;;11.13;2.00;;;4.90;99.90;;;;;;5079141;28;20048;-87
2022/02/22 01:24:03;;;;;;;2.83;1.53;;;4.90;99.90;;;;;;5079517;28;20498;-86
2022/02/22 01:26:41;;;;;;;3.33;1.33;;;4.90;99.90;;;;;;5078691;28;20040;-83
2022/02/22 01:29:09;;;;;;;2.37;0.93;;;4.90;99.90;;;;;;5079464;28;20083;-85
2022/02/22 01:31:36;;;;;;;2.37;0.73;;;4.90;99.90;;;;;;5079780;28;20102;-83
2022/02/22 01:34:03;;;;;;;3.83;1.40;;;4.90;99.90;;;;;;5077730;28;20480;-84
2022/02/22 01:36:29;;;;;;;2.00;1.20;;;4.90;99.90;;;;;;5090572;28;20048;-85
2022/02/22 01:38:58;;;;;;;1.70;1.10;;;5.00;99.90;;;;;;5091479;28;20052;-85
2022/02/22 01:41:26;;;;;;;1.77;1.27;;;5.00;99.90;;;;;;5094179;28;20045;-84
2022/02/22 01:43:53;;;;;;;4.20;1.03;;;5.00;99.90;;;;;;5090937;28;20078;-83
2022/02/22 01:46:20;;;;;;;4.83;1.60;;;4.90;99.90;;;;;;5082723;28;20457;-85
2022/02/22 01:48:47;;;;;;;4.90;1.73;;;5.00;99.90;;;;;;5075059;28;20406;-85
2022/02/22 01:51:14;;;;;;;4.17;1.30;;;5.00;99.90;;;;;;5079616;28;20052;-85
2022/02/22 01:53:41;;;;;;;3.80;1.10;;;5.00;99.90;;;;;;5078070;28;20104;-82
2022/02/22 01:56:09;;;;;;;3.93;0.90;;;5.00;99.90;;;;;;5079487;28;20048;-84
2022/02/22 01:58:37;;;;;;;2.73;0.53;;;5.00;99.90;;;;;;5077464;28;20056;-86
2022/02/22 02:01:05;;;;;;;1.87;1.03;;;5.00;99.90;;;;;;5077672;28;20106;-85
2022/02/22 02:03:31;;;;;;;1.00;0.77;;;5.00;99.90;;;;;;5078481;28;20049;-83
2022/02/22 02:05:58;;;;;;;4.23;1.43;;;5.10;99.90;;;;;;5088781;28;20097;-85
2022/02/22 02:08:25;;;;;;;5.77;1.63;;;5.00;99.90;;;;;;5084770;28;20052;-85
2022/02/22 02:10:52;;;;;;;13.70;1.67;;;5.10;99.90;;;;;;5078400;28;20048;-85
2022/02/22 02:13:20;;;;;;;4.67;1.30;;;5.10;99.90;;;;;;5081477;28;20055;-86
2022/02/22 02:15:47;;;;;;;3.27;0.90;;;5.10;99.90;;;;;;5080146;28;20052;-84
2022/02/22 02:18:14;;;;;;;4.40;0.73;;;5.10;99.90;;;;;;5078304;28;20037;-84
2022/02/22 02:20:47;;;;;;;5.70;0.90;;;5.10;99.90;;;;;;5083385;28;20044;-84
2022/02/22 02:23:16;;;;;;;7.73;0.67;;;5.00;99.90;;;;;;5089658;28;20040;-85
2022/02/22 02:25:43;;;;;;;0.97;0.93;;;5.00;99.90;;;;;;5077991;28;20106;-86
2022/02/22 02:28:10;;;;;;;3.60;1.07;;;5.00;99.90;;;;;;5078637;28;20086;-88
2022/02/22 02:30:37;;;;;;;2.90;0.90;;;5.10;99.90;;;;;;5078436;28;20056;-89
2022/02/22 02:33:04;;;;;;;2.80;0.40;;;5.10;99.90;;;;;;5078782;28;20044;-88
2022/02/22 02:35:32;;;;;;;7.33;1.80;;;5.00;99.90;;;;;;5077171;28;20131;-87
2022/02/22 02:37:59;;;;;;;1.23;0.80;;;5.00;99.90;;;;;;5074862;28;20059;-85
2022/02/22 02:40:28;;;;;;;1.33;0.60;;;5.00;99.90;;;;;;5076006;28;20056;-87
2022/02/22 02:42:54;;;;;;;10.87;1.13;;;4.90;99.90;;;;;;5076150;28;20048;-86
2022/02/22 02:45:23;;;;;;;3.10;1.37;;;5.00;99.90;;;;;;5076518;28;20453;-85
2022/02/22 02:47:50;;;;;;;3.27;0.70;;;4.90;99.90;;;;;;5074103;28;20501;-86
2022/02/22 02:50:17;;;;;;;0.50;0.50;;;5.00;99.90;;;;;;5076258;28;20068;-86
2022/02/22 02:52:44;;;;;;;4.27;0.93;;;5.00;99.90;;;;;;5076263;28;20490;-85
2022/02/22 02:55:11;;;;;;;3.40;0.70;;;5.00;99.90;;;;;;5075615;28;20076;-85
2022/02/22 02:57:39;;;;;;;3.77;0.60;;;5.00;99.90;;;;;;5077163;28;20063;-84
2022/02/22 03:00:09;;;;;;;8.53;1.07;;;5.00;99.90;;;;;;5076386;28;20040;-84
2022/02/22 03:02:35;;;;;;;3.87;1.03;;;5.00;99.90;;;;;;5076042;28;20055;-84
2022/02/22 03:05:02;;;;;;;5.13;1.13;;;4.90;99.90;;;;;;5076160;28;20082;-85
2022/02/22 03:07:29;;;;;;;2.60;1.17;;;4.90;99.90;;;;;;5074913;28;20044;-84
2022/02/22 03:09:55;;;;;;;4.93;1.97;;;4.90;99.90;;;;;;5076157;28;20048;-85
2022/02/22 03:12:22;;;;;;;5.30;1.20;;;4.90;99.90;;;;;;5075294;28;20048;-85
2022/02/22 03:14:52;;;;;;;3.10;1.10;;;4.90;99.90;;;;;;5073938;28;20048;-84
2022/02/22 03:17:19;;;;;;;3.47;0.87;;;4.80;99.90;;;;;;5076579;28;20059;-85
2022/02/22 03:19:45;;;;;;;1.93;0.63;;;4.90;99.90;;;;;;5075240;28;20056;-85
2022/02/22 03:22:13;;;;;;;3.13;1.10;;;4.80;99.90;;;;;;5075999;28;20049;-85
2022/02/22 03:24:40;;;;;;;4.03;1.40;;;4.90;99.90;;;;;;5075287;28;20052;-85
2022/02/22 03:27:07;;;;;;;3.10;1.17;;;4.90;99.90;;;;;;5075011;28;20067;-85
2022/02/22 03:29:34;;;;;;;4.33;1.27;;;4.90;99.90;;;;;;5076102;28;20052;-84
2022/02/22 03:32:02;;;;;;;5.80;0.80;;;4.90;99.90;;;;;;5074292;28;20052;-80
2022/02/22 03:34:29;;;;;;;5.33;1.43;;;4.90;99.90;;;;;;5075358;28;20106;-83
2022/02/22 03:36:56;;;;;;;3.03;1.10;;;4.90;99.90;;;;;;5072255;28;20098;-84
2022/02/22 03:39:22;;;;;;;5.87;2.30;;;4.90;99.90;;;;;;5062497;28;20041;-83
2022/02/22 03:41:49;;;;;;;3.10;1.03;;;4.90;99.90;;;;;;5075088;28;20051;-84
2022/02/22 03:44:17;;;;;;;1.27;0.97;;;4.90;99.90;;;;;;5075200;28;20048;-83
2022/02/22 03:46:44;;;;;;;11.80;1.63;;;4.90;99.90;;;;;;5073922;28;20040;-83
2022/02/22 03:49:12;;;;;;;2.13;0.97;;;4.90;99.90;;;;;;5075025;28;20052;-83
2022/02/22 03:51:40;;;;;;;2.00;1.00;;;4.90;99.90;;;;;;5074283;28;20057;-82
2022/02/22 03:54:07;;;;;;;3.37;0.73;;;4.90;99.90;;;;;;5075003;28;20048;-86
2022/02/22 03:56:34;;;;;;;3.33;1.57;;;4.90;99.90;;;;;;5075632;28;20052;-84
2022/02/22 03:59:01;;;;;;;3.33;1.67;;;4.90;99.90;;;;;;5069696;28;20405;-84
2022/02/22 04:01:27;;;;;;;1.17;1.07;;;4.90;99.90;;;;;;5075483;28;20048;-85
2022/02/22 04:03:54;;;;;;;2.13;0.90;;;4.90;99.90;;;;;;5076224;28;20048;-85
2022/02/22 04:06:23;;;;;;;3.40;1.27;;;4.90;99.90;;;;;;5076393;28;20045;-87
2022/02/22 04:08:49;;;;;;;2.17;1.00;;;5.00;99.90;;;;;;5077579;28;20052;-85
2022/02/22 04:11:16;;;;;;;5.30;0.73;;;4.90;99.90;;;;;;5073165;28;20047;-85
2022/02/22 04:13:43;;;;;;;3.77;1.00;;;5.00;99.90;;;;;;5076778;28;20052;-84
2022/02/22 04:16:10;;;;;;;2.83;0.70;;;5.00;99.90;;;;;;5075116;28;20052;-85
2022/02/22 04:18:37;;;;;;;4.20;1.27;;;5.00;99.90;;;;;;5077106;28;20051;-84
2022/02/22 04:21:03;;;;;;;7.17;1.17;;;5.10;99.90;;;;;;5079396;28;20045;-85
2022/02/22 04:23:32;;;;;;;5.53;1.47;;;5.10;99.90;;;;;;5079082;28;20044;-83
2022/02/22 04:25:58;;;;;;;9.10;2.03;;;5.10;99.90;;;;;;5078084;28;20048;-86
2022/02/22 04:28:25;;;;;;;13.40;1.20;;;5.00;99.90;;;;;;5079537;28;20461;-86
2022/02/22 04:30:52;;;;;;;7.83;1.47;;;4.90;99.90;;;;;;5079898;28;20060;-86
2022/02/22 04:33:19;;;;;;;1.60;0.80;;;4.90;99.90;;;;;;5079671;28;20044;-85
2022/02/22 04:35:45;;;;;;;7.93;2.57;;;4.90;99.90;;;;;;5078297;28;20533;-86
2022/02/22 04:38:12;;;;;;;6.93;2.17;;;4.80;99.90;;;;;;5077528;28;20048;-86
2022/02/22 04:40:41;;;;;;;4.53;1.20;;;4.80;99.90;;;;;;5079303;28;20044;-86
2022/02/22 04:43:08;;;;;;;2.60;1.20;;;4.80;99.90;;;;;;5079394;28;20048;-87
2022/02/22 04:45:34;;;;;;;4.70;0.80;;;4.80;99.90;;;;;;5078720;28;20048;-85
2022/02/22 04:48:01;;;;;;;3.97;1.67;;;4.70;99.90;;;;;;5058860;28;20041;-85
2022/02/22 04:50:28;;;;;;;13.47;2.47;;;4.80;99.90;;;;;;5060669;28;20056;-86
2022/02/22 04:52:55;;;;;;;5.97;1.03;;;4.80;99.90;;;;;;5077970;28;20048;-85
2022/02/22 04:55:22;;;;;;;8.47;1.10;;;4.80;99.90;;;;;;5078319;28;20051;-84
2022/02/22 04:57:50;;;;;;;5.60;1.13;;;4.80;99.90;;;;;;5078369;28;20053;-84
2022/02/22 05:00:17;;;;;;;7.07;2.63;;;4.80;99.90;;;;;;5077923;28;20106;-84
2022/02/22 05:02:48;;;;;;;7.83;1.60;;;4.70;99.90;;;;;;5077194;28;20398;-85
2022/02/22 05:05:15;;;;;;;5.33;1.33;;;4.70;99.90;;;;;;5078705;28;20052;-84
2022/02/22 05:07:42;;;;;;;5.93;0.97;;;4.70;99.90;;;;;;5078335;28;20118;-84
2022/02/22 05:10:11;;;;;;;12.43;2.57;;;4.70;99.90;;;;;;5079027;28;20063;-86
2022/02/22 05:12:38;;;;;;;9.57;2.63;;;4.70;99.90;;;;;;5077264;28;20479;-84
2022/02/22 05:15:07;;;;;;;6.43;1.20;;;4.60;99.90;;;;;;5078475;28;20048;-83
2022/02/22 05:17:34;;;;;;;9.37;2.37;;;4.50;99.90;;;;;;5079055;28;20044;-85
2022/02/22 05:20:00;;;;;;;4.90;2.07;;;4.40;99.90;;;;;;5080077;28;20052;-82
2022/02/22 05:22:27;;;;;;;2.80;1.03;;;4.40;99.90;;;;;;5078301;28;20057;-83
2022/02/22 05:24:54;;;;;;;8.90;1.53;;;4.40;99.90;;;;;;5075685;28;20549;-83
2022/02/22 05:27:20;;;;;;;8.40;2.87;;;4.20;99.90;;;;;;5076611;28;20040;-85
2022/02/22 05:29:47;;;;;;;10.23;2.03;;;4.20;99.90;;;;;;5076564;28;20044;-84
2022/02/22 05:32:16;;;;;;;4.73;1.37;;;4.10;99.90;;;;;;5077580;28;20069;-85
2022/02/22 05:34:42;;;;;;;18.53;1.80;;;4.10;99.90;;;;;;5077027;28;20481;-83
2022/02/22 05:37:09;;;;;;;5.93;0.90;;;4.00;99.90;;;;;;5076763;28;20056;-86
2022/02/22 05:39:36;;;;;;;5.17;0.97;;;4.10;99.90;;;;;;5077806;28;20474;-85
2022/02/22 05:42:03;;;;;;;4.13;2.03;;;4.10;99.90;;;;;;5076105;28;20049;-84
2022/02/22 05:44:30;;;;;;;12.60;2.60;;;4.10;99.90;;;;;;5077619;28;20106;-84
2022/02/22 05:46:56;;;;;;;8.30;0.77;;;4.10;99.90;;;;;;5077626;28;20041;-84
2022/02/22 05:49:25;;;;;;;5.10;1.50;;;4.10;99.90;;;;;;5074715;28;20098;-84
2022/02/22 05:51:53;;;;;;;9.10;2.17;;;4.00;99.90;;;;;;5077033;28;20044;-84
2022/02/22 05:54:20;;;;;;;6.23;1.10;;;3.90;99.90;;;;;;5077842;28;20481;-84
2022/02/22 05:56:47;;;;;;;11.23;1.70;;;3.90;99.90;;;;;;5076750;28;20139;-84
2022/02/22 05:59:14;;;;;;;8.73;1.80;;;4.00;99.90;;;;;;5077888;28;20051;-87
2022/02/22 06:01:43;;;;;;;12.43;2.37;;;4.00;99.90;;;;;;5075496;28;20110;-84
2022/02/22 06:04:10;;;;;;;2.30;1.00;;;4.10;99.90;;;;;;5076937;28;20044;-85
2022/02/22 06:06:38;;;;;;;7.80;1.50;;;4.20;99.90;;;;;;5077864;28;20052;-82
2022/02/22 06:09:05;;;;;;;14.47;2.07;;;4.20;99.90;;;;;;5078294;28;20106;-84
2022/02/22 06:11:40;;;;;;;10.10;1.77;;;4.20;99.90;;;;;;5077452;28;20165;-86
2022/02/22 06:14:07;;;;;;;11.00;1.03;;;4.20;99.90;;;;;;5075066;28;20045;-84
2022/02/22 06:16:34;;;;;;;9.33;2.63;;;4.20;99.90;;;;;;5074282;28;20048;-80
2022/02/22 06:19:00;;;;;;;58.77;27.30;;;4.30;99.90;;;;;;5076147;28;20072;-86
2022/02/22 06:29:41;;;;;;;5.00;2.10;;;4.30;99.90;;;;;;5054096;28;20060;-90
2022/02/22 06:32:11;;;;;;;8.77;2.50;;;4.30;99.90;;;;;;5070309;28;20056;-89
2022/02/22 06:34:40;;;;;;;7.57;1.77;;;4.40;99.90;;;;;;5078982;28;20040;-86
2022/02/22 06:42:12;;;;;;;5.67;2.20;;;4.50;99.90;;;;;;5070764;28;20116;-86
2022/02/22 06:44:40;;;;;;;9.17;1.90;;;4.60;99.90;;;;;;5077309;28;20052;-86
2022/02/22 06:47:07;;;;;;;8.30;1.40;;;4.60;99.90;;;;;;5074992;28;20048;-85
2022/02/22 06:49:34;;;;;;;13.53;2.43;;;4.50;99.90;;;;;;5077771;28;20045;-86
2022/02/22 06:52:04;;;;;;;5.30;1.40;;;4.60;99.90;;;;;;5080583;28;20075;-89
2022/02/22 06:57:13;;;;;;;9.87;2.80;;;4.80;99.90;;;;;;5076122;28;20075;-88
2022/02/22 06:59:50;;;;;;;8.43;2.70;;;5.10;99.90;;;;;;5078599;28;20055;-91
2022/02/22 07:02:18;;;;;;;14.83;3.60;;;5.30;99.90;;;;;;5075416;28;20064;-89
2022/02/22 07:04:46;;;;;;;7.60;1.30;;;5.20;99.90;;;;;;5083636;28;20044;-91
2022/02/22 07:07:13;;;;;;;7.00;2.47;;;5.20;99.90;;;;;;5078695;28;20068;-86
2022/02/22 07:09:40;;;;;;;9.87;1.90;;;5.30;99.90;;;;;;5079471;28;20044;-85
2022/02/22 07:12:08;;;;;;;4.20;1.53;;;5.40;99.90;;;;;;5080559;28;20059;-85
2022/02/22 07:14:38;;;;;;;7.00;1.80;;;5.40;99.90;;;;;;5080104;28;20119;-86
2022/02/22 07:17:10;;;;;;;4.50;2.17;;;5.40;99.90;;;;;;5078639;28;20508;-89
2022/02/22 07:19:37;;;;;;;10.27;1.20;;;5.20;99.90;;;;;;5078351;28;20052;-84
2022/02/22 07:22:04;;;;;;;7.83;2.60;;;5.30;99.90;;;;;;5076527;28;20051;-87
2022/02/22 07:24:31;;;;;;;8.23;2.03;;;5.30;99.90;;;;;;5070400;28;20063;-83
2022/02/22 07:26:58;;;;;;;9.00;2.60;;;5.30;99.90;;;;;;5074219;28;20053;-82
2022/02/22 07:29:25;;;;;;;9.13;1.67;;;5.20;99.90;;;;;;5074885;28;20082;-87
2022/02/22 07:31:53;;;;;;;21.07;3.73;;;5.20;99.90;;;;;;5080590;28;20052;-80
2022/02/22 07:34:24;;;;;;;3.23;1.33;;;5.10;99.90;;;;;;5077401;28;20500;-80
2022/02/22 07:36:51;;;;;;;11.60;2.57;;;5.10;99.90;;;;;;5073630;28;20114;-80
2022/02/22 07:39:18;;;;;;;15.57;2.90;;;5.20;99.90;;;;;;5074773;28;20101;-80
2022/02/22 07:41:45;;;;;;;6.97;1.80;;;5.30;99.90;;;;;;5073268;28;20045;-80
2022/02/22 07:44:11;;;;;;;6.47;1.30;;;5.40;99.90;;;;;;5062170;28;20069;-80
2022/02/22 07:46:38;;;;;;;8.53;2.07;;;5.70;99.90;;;;;;5073638;28;20566;-80
2022/02/22 07:49:07;;;;;;;9.23;1.77;;;5.90;99.90;;;;;;5071466;28;20083;-79
2022/02/22 07:51:35;;;;;;;5.60;2.10;;;6.00;99.90;;;;;;5057545;28;20091;-80
2022/02/22 07:54:02;;;;;;;10.67;1.57;;;6.10;99.90;;;;;;5064750;28;20040;-82
2022/02/22 07:56:31;;;;;;;3.50;1.40;;;6.60;99.90;;;;;;5066003;28;20052;-86
2022/02/22 07:58:58;;;;;;;10.77;2.40;;;6.90;99.90;;;;;;5078375;28;20051;-89
2022/02/22 08:01:25;;;;;;;7.03;2.53;;;6.90;99.90;;;;;;5075611;28;20052;-88
2022/02/22 08:03:52;;;;;;;4.85;2.35;;;7.30;99.90;;;;;;5068234;28;20047;-91
2022/02/22 08:06:21;;;;;;;10.73;1.90;;;7.70;99.90;;;;;;5080618;28;20483;-89
2022/02/22 08:08:49;;;;;;;7.53;2.55;;;8.30;99.90;;;;;;5074763;28;20045;-84
2022/02/22 08:11:18;;;;;;;3.80;1.58;;;8.80;99.90;;;;;;5073611;28;20052;-83
2022/02/22 08:13:49;;;;;;;3.10;1.17;;;9.40;99.90;;;;;;5074923;28;20044;-80
2022/02/22 08:16:18;;;;;;;7.47;1.77;;;9.40;99.90;;;;;;5073219;28;20049;-78
2022/02/22 08:18:44;;;;;;;4.35;1.38;;;9.50;99.90;;;;;;5063972;28;20046;-78
2022/02/22 08:21:11;;;;;;;5.47;1.38;;;9.80;99.90;;;;;;5055431;28;20045;-79
2022/02/22 08:23:38;;;;;;;9.63;2.10;;;10.00;99.90;;;;;;5062545;28;20119;-81
2022/02/22 08:26:06;;;;;;;9.85;1.52;;;10.00;99.90;;;;;;5073963;28;20040;-80
2022/02/22 08:28:33;;;;;;;5.15;2.35;;;9.90;99.90;;;;;;5074098;28;20049;-81
2022/02/22 08:31:00;;;;;;;3.83;1.17;;;10.10;99.90;;;;;;5073860;28;20083;-84
2022/02/22 08:33:27;;;;;;;8.15;2.30;;;10.10;99.90;;;;;;5074596;28;20074;-85
2022/02/22 08:35:54;;;;;;;2.45;1.10;;;9.70;99.90;;;;;;5070284;28;20052;-87
2022/02/22 08:38:20;;;;;;;5.30;1.48;;;10.00;99.90;;;;;;5077755;28;20104;-78
2022/02/22 08:40:50;;;;;;;11.23;2.65;;;9.40;99.90;;;;;;5072681;28;20049;-81
2022/02/22 08:43:18;;;;;;;5.40;0.50;;;9.00;99.90;;;;;;5075022;28;20509;-84
2022/02/22 08:45:48;;;;;;;7.10;2.00;;;8.60;99.90;;;;;;5073548;28;20044;-81
2022/02/22 08:48:19;;;;;;;7.32;1.67;;;8.40;99.90;;;;;;5295428;22;20024;-91
2022/02/22 08:50:46;;;;;;;12.55;2.53;;;8.50;99.90;;;;;;5053771;28;20041;-82
2022/02/22 08:53:14;;;;;;;7.05;1.15;;;8.30;99.90;;;;;;5062924;28;20044;-86
2022/02/22 08:55:41;;;;;;;6.60;2.15;;;8.50;99.90;;;;;;5064097;28;20059;-88
2022/02/22 08:58:08;;;;;;;8.80;1.80;;;9.50;99.90;;;;;;5078081;28;20218;-84
2022/02/22 09:00:36;;;;;;;7.70;1.45;;;10.40;99.90;;;;;;5063141;28;20075;-84
2022/02/22 09:03:03;;;;;;;6.85;1.88;;;11.00;99.90;;;;;;5068677;28;20114;-88
2022/02/22 09:05:32;;;;;;;10.70;1.42;;;10.90;99.90;;;;;;5069695;28;20049;-88
2022/02/22 09:08:01;;;;;;;7.28;3.05;;;10.90;99.90;;;;;;5065755;28;20056;-82
2022/02/22 09:10:28;;;;;;;15.73;2.20;;;10.60;99.90;;;;;;5067849;28;20052;-83
2022/02/22 09:12:55;;;;;;;6.10;1.77;;;10.20;99.90;;;;;;5087670;28;20074;-80
2022/02/22 09:15:24;;;;;;;12.35;4.93;;;9.90;99.90;;;;;;5082599;28;20049;-81
2022/02/22 09:17:52;;;;;;;7.70;2.55;;;9.30;99.90;;;;;;5071705;28;20053;-84
2022/02/22 09:20:22;;;;;;;12.60;4.50;;;9.50;99.90;;;;;;5065929;28;20052;-84
2022/02/22 09:22:49;;;;;;;14.65;5.50;;;10.20;99.90;;;;;;5066394;28;20072;-85
2022/02/22 09:25:18;;;;;;;7.97;2.90;;;10.00;99.90;;;;;;5082751;28;20044;-84
2022/02/22 09:27:45;;;;;;;5.88;1.88;;;10.30;99.90;;;;;;5064109;28;20041;-84
2022/02/22 09:30:14;;;;;;;77.53;45.83;;;9.90;99.90;;;;;;5066014;28;20048;-85
2022/02/22 09:35:49;;;;;;;6.97;1.55;;;10.10;99.90;;;;;;5041085;28;20049;-89
2022/02/22 09:38:16;;;;;;;6.40;1.02;;;9.50;99.90;;;;;;5035850;28;20060;-86
2022/02/22 09:40:44;;;;;;;8.00;2.50;;;8.90;99.90;;;;;;5047017;28;20061;-84
2022/02/22 09:43:11;;;;;;;1.50;1.10;;;8.50;99.90;;;;;;5036362;28;20041;-85
2022/02/22 09:45:38;;;;;;;6.70;1.33;;;8.30;99.90;;;;;;5055110;28;20045;-84
2022/02/22 09:48:05;;;;;;;4.50;1.38;;;8.40;99.90;;;;;;5058267;28;20049;-85
2022/02/22 09:50:34;;;;;;;2.42;0.63;;;9.10;99.90;;;;;;5055253;28;20045;-84
2022/02/22 09:53:03;;;;;;;3.25;0.77;;;8.60;99.90;;;;;;5039387;28;20068;-85
2022/02/22 09:55:30;;;;;;;6.22;1.42;;;8.10;99.90;;;;;;5038717;28;20065;-85
2022/02/22 09:57:57;;;;;;;4.97;1.67;;;8.00;99.90;;;;;;5053943;28;20050;-85
2022/02/22 10:00:27;;;;;;;6.50;1.90;;;7.80;99.90;;;;;;5037057;28;20053;-86
2022/02/22 10:02:54;;;;;;;4.20;0.80;;;7.50;99.90;;;;;;5036829;28;20103;-83
2022/02/22 10:05:23;;;;;;;9.03;2.33;;;7.50;99.90;;;;;;5040419;28;20041;-84
2022/02/22 10:07:54;;;;;;;4.90;0.60;;;7.30;99.90;;;;;;5050162;28;20045;-87
2022/02/22 10:10:34;;;;;;;1.33;0.90;;;7.20;99.90;;;;;;5048811;28;20072;-87
2022/02/22 10:13:04;;;;;;;3.00;0.80;;;7.10;99.90;;;;;;5048706;28;20084;-86
2022/02/22 10:15:41;;;;;;;2.97;0.73;;;6.90;99.90;;;;;;5045883;28;20111;-85
2022/02/22 10:21:00;;;;;;;4.10;1.35;;;6.90;99.90;;;;;;5047704;28;20048;-87
2022/02/22 10:23:28;;;;;;;5.27;1.97;;;7.20;99.90;;;;;;5046882;28;20060;-86
2022/02/22 10:26:00;;;;;;;6.03;1.23;;;7.10;99.90;;;;;;5043759;28;20076;-86
2022/02/22 10:28:30;;;;;;;5.13;1.13;;;7.00;99.90;;;;;;5042912;28;20053;-87
2022/02/22 10:30:59;;;;;;;2.40;1.30;;;6.90;99.90;;;;;;5040129;28;20088;-85
2022/02/22 10:33:28;;;;;;;4.20;0.80;;;6.80;99.90;;;;;;5033722;28;20237;-86
2022/02/22 10:35:58;;;;;;;4.40;1.20;;;7.70;99.90;;;;;;5036696;28;20136;-85
2022/02/22 10:38:28;;;;;;;2.78;1.35;;;11.70;99.90;;;;;;5025561;28;20058;-87
2022/02/22 10:41:01;;;;;;;2.25;0.82;;;12.50;94.80;;;;;;5012118;28;20073;-88
2022/02/22 10:43:29;;;;;;;64.10;35.50;;;12.10;91.80;;;;;;5014777;28;20083;-86
2022/02/22 10:46:06;;;;;;;25.42;13.00;;;11.00;94.80;;;;;;5024181;28;20042;-85
2022/02/22 10:48:35;;;;;;;2.50;1.30;;;10.10;96.20;;;;;;5034559;28;20054;-86
2022/02/22 10:51:04;;;;;;;4.53;1.48;;;9.20;97.70;;;;;;5037126;28;20080;-85
2022/02/22 10:53:34;;;;;;;7.78;1.25;;;8.50;99.90;;;;;;5038761;28;20056;-86
2022/02/22 10:56:05;;;;;;;5.32;1.05;;;8.20;99.90;;;;;;5038357;28;20053;-86
2022/02/22 10:58:32;;;;;;;2.55;1.30;;;8.10;99.90;;;;;;5029058;28;20141;-85
2022/02/22 11:00:59;;;;;;;4.10;2.00;;;9.10;99.90;;;;;;5025310;28;20053;-87
2022/02/22 11:03:26;;;;;;;3.60;1.23;;;10.10;99.90;;;;;;5028273;28;20045;-88
2022/02/22 11:05:57;;;;;;;2.20;1.20;;;12.20;96.50;;;;;;5045746;28;20056;-88
2022/02/22 11:08:29;;;;;;;5.13;1.80;;;12.10;91.70;;;;;;5036496;28;20052;-89
2022/02/22 11:11:04;;;;;;;1.52;0.60;;;11.30;92.30;;;;;;5013505;28;20056;-89
2022/02/22 11:13:32;;;;;;;10.07;3.20;;;12.00;91.50;;;;;;5013073;28;20054;-89
2022/02/22 11:16:13;;;;;;;3.10;0.88;;;13.80;79.80;;;;;;5015911;28;20052;-88
2022/02/22 11:18:47;;;;;;;6.30;1.20;;;11.90;85.00;;;;;;5008503;28;20058;-89
2022/02/22 11:21:17;;;;;;;5.57;1.77;;;10.90;91.10;;;;;;5028342;28;20515;-88
2022/02/22 11:23:44;;;;;;;4.13;1.30;;;10.30;93.40;;;;;;5037879;28;20049;-89
2022/02/22 11:26:17;;;;;;;3.67;1.23;;;9.60;93.70;;;;;;5030887;28;20042;-88
2022/02/22 11:28:46;;;;;;;10.23;5.07;;;8.90;96.70;;;;;;4997928;28;20050;-87
2022/02/22 11:31:18;;;;;;;7.13;1.40;;;8.80;98.60;;;;;;5011042;28;20053;-88
2022/02/22 11:33:50;;;;;;;3.72;1.27;;;8.80;98.80;;;;;;5035911;28;20049;-89
2022/02/22 11:36:32;;;;;;;2.88;0.98;;;8.60;99.90;;;;;;5030249;28;20096;-89
2022/02/22 11:39:04;;;;;;;5.20;1.50;;;8.30;99.90;;;;;;5028059;28;20515;-86
2022/02/22 11:41:42;;;;;;;5.57;0.80;;;8.10;99.90;;;;;;5016122;28;20107;-85
2022/02/22 11:44:47;;;;;;;7.75;1.52;;;7.90;99.90;;;;;;5007701;28;20061;-85
2022/02/22 11:47:20;;;;;;;4.63;1.53;;;7.70;99.90;;;;;;5021407;28;20049;-85
2022/02/22 11:49:53;;;;;;;4.47;1.47;;;7.70;99.90;;;;;;5014200;28;20065;-85
2022/02/22 11:52:23;;;;;;;7.03;1.80;;;7.70;99.90;;;;;;5033400;28;20085;-86
2022/02/22 11:54:50;;;;;;;7.90;1.77;;;7.60;99.90;;;;;;5029208;28;20057;-87
2022/02/22 11:57:19;;;;;;;11.30;2.33;;;7.50;99.90;;;;;;5024743;28;20459;-84
2022/02/22 11:59:47;;;;;;;6.50;0.87;;;7.40;99.90;;;;;;5007742;28;20492;-88
2022/02/22 12:02:26;;;;;;;7.73;2.07;;;7.30;99.90;;;;;;5018227;28;20045;-85
2022/02/22 12:04:54;;;;;;;9.20;3.40;;;7.30;99.90;;;;;;5021207;28;20080;-85
2022/02/22 12:07:29;;;;;;;4.63;1.67;;;7.40;99.90;;;;;;5021822;28;20439;-85
2022/02/22 12:09:58;;;;;;;3.17;0.87;;;7.50;99.90;;;;;;5020472;28;20056;-85
2022/02/22 12:12:26;;;;;;;4.93;1.63;;;7.50;99.90;;;;;;5020181;28;20073;-85
2022/02/22 12:14:58;;;;;;;4.20;1.10;;;7.60;99.90;;;;;;5021611;28;20411;-85
2022/02/22 12:17:25;;;;;;;6.72;1.63;;;7.70;99.90;;;;;;5019666;28;20076;-85
2022/02/22 12:19:57;;;;;;;5.68;0.98;;;7.90;99.90;;;;;;5022002;28;20041;-84
2022/02/22 12:22:26;;;;;;;5.70;1.08;;;8.00;99.90;;;;;;5022549;28;20054;-84
2022/02/22 12:25:00;;;;;;;4.32;0.88;;;7.90;99.90;;;;;;5020980;28;20046;-84
2022/02/22 12:27:31;;;;;;;28.77;14.40;;;7.90;99.90;;;;;;5042983;28;20056;-82
2022/02/22 12:29:59;;;;;;;10.27;4.10;;;8.10;99.90;;;;;;5041701;28;20048;-84
2022/02/22 12:32:32;;;;;;;4.18;1.65;;;8.20;99.90;;;;;;5039772;28;20050;-83
2022/02/22 12:35:01;;;;;;;3.30;1.43;;;8.10;99.90;;;;;;5040286;28;20046;-83
2022/02/22 12:37:29;;;;;;;9.93;2.80;;;8.10;99.90;;;;;;5023485;28;20053;-83
2022/02/22 12:40:10;;;;;;;5.50;1.83;;;8.00;99.90;;;;;;5021707;28;20488;-84
2022/02/22 12:42:40;;;;;;;3.95;0.82;;;8.10;99.90;;;;;;5027393;28;20131;-84
2022/02/22 12:45:13;;;;;;;6.95;1.45;;;8.20;99.90;;;;;;5029368;28;20083;-83
2022/02/22 12:47:40;;;;;;;4.15;1.77;;;8.30;99.90;;;;;;5031273;28;20053;-85
2022/02/22 12:50:11;;;;;;;7.63;1.60;;;8.60;99.90;;;;;;5029346;28;20056;-84
2022/02/22 12:52:38;;;;;;;5.13;1.60;;;8.70;99.90;;;;;;5023392;28;20499;-85
2022/02/22 12:55:09;;;;;;;6.78;0.82;;;9.60;99.90;;;;;;5036525;28;20046;-85
2022/02/22 12:57:36;;;;;;;4.35;1.23;;;10.80;98.30;;;;;;5050124;28;20412;-83
2022/02/22 13:00:06;;;;;;;2.70;0.95;;;10.90;94.20;;;;;;5031817;28;20546;-86
2022/02/22 13:02:33;;;;;;;2.35;1.27;;;11.40;91.70;;;;;;5019322;28;20050;-85
2022/02/22 13:05:00;;;;;;;2.70;1.35;;;13.40;88.70;;;;;;5018782;28;20100;-87
2022/02/22 13:07:27;;;;;;;4.93;1.40;;;14.70;79.30;;;;;;5020057;28;20129;-86
2022/02/22 13:10:06;;;;;;;5.40;1.23;;;15.90;72.20;;;;;;5016100;28;20094;-87
2022/02/22 13:12:36;;;;;;;6.95;1.90;;;15.00;67.70;;;;;;5025460;28;20480;-88
2022/02/22 13:15:04;;;;;;;7.78;1.45;;;14.40;68.50;;;;;;5029783;28;20057;-87
2022/02/22 13:17:32;;;;;;;7.97;1.80;;;14.00;70.10;;;;;;5018726;28;20546;-85
2022/02/22 13:20:00;;;;;;;5.03;1.52;;;13.70;70.20;;;;;;5018414;28;20056;-87
2022/02/22 13:22:30;;;;;;;9.32;3.50;;;13.60;72.70;;;;;;5025658;28;20050;-87
2022/02/22 13:24:58;;;;;;;7.03;4.00;;;14.30;72.40;;;;;;5019016;28;20038;-87